Barter Island LRRS Airport Barter Island Lrrs US
ICAO: PABA
IATA:
Category: Medium
Scheduled Services:

Elevation: 2 ft
TransAlt. 18000 ft.

Airport Communications:
AWOS 3:30.8
ANCHORAGE CNTR:120.6
CTAF:126.2
DEADHORSE RDO:122
RDO:126.2

PABA Zoom In..

If you have problems with the map follow the link
https://www.worldairports.se/pages/airport.php?
ICAO=PABA

Runways:

(A) RW 07 length 4818 ft width 100 ft
---- / hdg 66

(B) RW 25 length 4818 ft width 100 ft
---- / hdg 246

Location; PABA
Day. 16 / Time. 11.52 Zulu
* Altimeter: 30.38
* Temperature: -23° c. 9.4°f.
* Wind from: 230° Speed 06 kn.
Dewpoint: -26° c.
Visibility: 10 Statute Miles.
Clouds: Broken 2400 ft.

PABA 161152Z AUTO 23006KT 10SM BKN024 M23/M26 A3038 RMK AO2 SLP274 T12281256 11222 21233 58001 FZRANO TSNO


Wind From 230°
Speed 06 kn.

 
 
jpsmedia.com for Web Design worldairports.se 2018   terms of use